Time;durP1;ratioP1;P1;durP2;ratioP2;P2;SDS_P1;SDS_P2;PMS_P1;PMS_P2;Temp;Humidity;BMP_temperature;BMP_pressure;BME280_temperature;BME280_humidity;BME280_pressure;Samples;Min_cycle;Max_cycle;Signal;HPM_P1;HPM_P2
2021/01/05 00:01:12;;;;;;;41.20;17.10;;;;;;;3.02;92.13;98064.16;5073173;28;20599;-61
2021/01/05 00:03:38;;;;;;;35.83;15.80;;;;;;;2.96;92.30;98065.84;5072284;28;20099;-62
2021/01/05 00:06:04;;;;;;;39.37;17.20;;;;;;;2.96;91.58;98059.09;5073588;28;20037;-62
2021/01/05 00:08:30;;;;;;;36.87;17.43;;;;;;;2.86;92.01;98059.06;5072518;28;20338;-62
2021/01/05 00:10:55;;;;;;;33.50;16.20;;;;;;;2.75;91.67;98061.59;5072754;28;20458;-63
2021/01/05 00:13:20;;;;;;;39.20;17.60;;;;;;;2.63;91.47;98059.03;5071908;28;20024;-62
2021/01/05 00:15:46;;;;;;;32.63;16.63;;;;;;;2.58;91.64;98059.00;5073549;28;20029;-63
2021/01/05 00:18:12;;;;;;;39.43;16.63;;;;;;;2.49;91.41;98051.38;5072276;28;20033;-63
2021/01/05 00:20:37;;;;;;;34.17;15.77;;;;;;;2.40;91.19;98060.63;5068916;28;20472;-63
2021/01/05 00:23:02;;;;;;;34.77;16.13;;;;;;;2.30;91.19;98052.16;5056507;28;20082;-63
2021/01/05 00:25:28;;;;;;;33.50;15.90;;;;;;;2.23;91.66;98058.88;5073057;28;20428;-64
2021/01/05 00:27:54;;;;;;;43.10;17.03;;;;;;;2.15;91.23;98058.00;5073711;28;20017;-63
2021/01/05 00:30:22;;;;;;;41.43;18.13;;;;;;;2.13;91.51;98068.91;5074000;28;20460;-63
2021/01/05 00:32:50;;;;;;;35.20;18.23;;;;;;;2.04;91.48;98062.13;5072000;28;20085;-63
2021/01/05 00:35:20;;;;;;;53.70;20.43;;;;;;;1.85;91.55;98070.47;5052241;28;20435;-62
2021/01/05 00:37:47;;;;;;;42.80;20.80;;;;;;;1.75;92.04;98074.59;5061870;28;20029;-62
2021/01/05 00:40:14;;;;;;;55.23;25.23;;;;;;;1.77;91.90;98077.16;5071469;28;20031;-63
2021/01/05 00:42:40;;;;;;;50.17;23.37;;;;;;;1.68;92.24;98077.94;5072614;28;20135;-63
2021/01/05 00:45:06;;;;;;;41.07;18.73;;;;;;;1.72;92.93;98073.75;5072471;28;20048;-63
2021/01/05 00:47:31;;;;;;;93.77;22.27;;;;;;;1.63;92.85;98079.56;5072433;28;20450;-63
2021/01/05 00:49:57;;;;;;;51.60;16.40;;;;;;;1.68;92.80;98075.41;5073137;28;20090;-63
2021/01/05 00:52:22;;;;;;;35.37;13.80;;;;;;;1.63;92.14;98078.72;5072104;28;20032;-63
2021/01/05 00:54:48;;;;;;;200.83;22.87;;;;;;;1.52;92.00;98076.13;5071203;28;20115;-63
2021/01/05 00:57:13;;;;;;;131.03;19.93;;;;;;;1.45;92.33;98081.09;5070337;28;20020;-63
2021/01/05 00:59:38;;;;;;;32.57;14.43;;;;;;;1.51;92.56;98076.97;5061585;28;20032;-63
2021/01/05 01:02:05;;;;;;;31.17;14.67;;;;;;;1.53;92.52;98080.31;5072197;28;20035;-63
2021/01/05 01:04:31;;;;;;;31.03;13.37;;;;;;;1.56;92.19;98082.03;5072473;28;20465;-63
2021/01/05 01:06:57;;;;;;;27.57;14.00;;;;;;;1.51;92.56;98082.00;5074637;28;20111;-63
2021/01/05 01:09:23;;;;;;;31.40;14.70;;;;;;;1.56;92.59;98077.84;5076487;28;20030;-63
2021/01/05 01:12:00;;;;;;;30.20;14.33;;;;;;;1.68;91.81;98082.13;5075378;28;20348;-63
2021/01/05 01:14:25;;;;;;;31.07;14.23;;;;;;;1.57;91.90;98079.50;5076389;28;20456;-63
2021/01/05 01:16:50;;;;;;;31.60;14.13;;;;;;;1.60;92.57;98083.75;5072712;28;20036;-63
2021/01/05 01:19:16;;;;;;;53.07;17.50;;;;;;;1.60;92.37;98083.75;5076434;28;20032;-63
2021/01/05 01:21:49;;;;;;;52.00;18.03;;;;;;;1.67;92.73;98078.75;5074072;28;20035;-63
2021/01/05 01:24:17;;;;;;;82.37;19.07;;;;;;;1.60;93.02;98084.59;5070630;28;20457;-63
2021/01/05 01:26:42;;;;;;;76.50;18.83;;;;;;;1.56;93.45;98082.03;5075211;28;20445;-63
2021/01/05 01:29:07;;;;;;;39.40;15.27;;;;;;;1.65;93.34;98077.91;5075699;28;20039;-63
2021/01/05 01:31:33;;;;;;;92.83;23.13;;;;;;;1.71;93.46;98082.16;5074104;28;20055;-63
2021/01/05 01:33:58;;;;;;;105.53;21.33;;;;;;;1.78;93.28;98084.72;5075391;28;20021;-61
2021/01/05 01:36:24;;;;;;;91.87;19.40;;;;;;;1.78;92.92;98084.72;5073726;28;20040;-63
2021/01/05 01:38:49;;;;;;;35.03;14.90;;;;;;;1.80;92.77;98082.22;5076187;28;20111;-63
2021/01/05 01:41:15;;;;;;;143.87;25.20;;;;;;;1.77;93.21;98082.19;5074421;28;20024;-63
2021/01/05 01:43:40;;;;;;;246.63;32.07;;;;;;;1.73;92.91;98083.00;5059402;28;20037;-63
2021/01/05 01:46:06;;;;;;;250.23;26.40;;;;;;;1.75;93.73;98087.22;5055428;28;20087;-63
2021/01/05 01:48:31;;;;;;;71.33;17.77;;;;;;;1.85;93.86;98078.03;5074972;28;20036;-63
2021/01/05 01:51:01;;;;;;;47.50;15.63;;;;;;;1.96;93.46;98083.16;5074298;28;20385;-63
2021/01/05 01:53:40;;;;;;;229.77;24.90;;;;;;;1.83;92.87;98074.63;5075233;28;20032;-63
2021/01/05 01:56:25;;;;;;;173.27;22.27;;;;;;;1.87;92.85;98075.53;5068731;28;20032;-63
2021/01/05 01:58:59;;;;;;;213.30;24.13;;;;;;;1.76;92.79;98072.91;5056467;28;20346;-63
2021/01/05 02:01:54;;;;;;;96.23;14.53;;;;;;;1.75;93.11;98072.06;5055083;28;20116;-63
2021/01/05 02:04:37;;;;;;;87.97;16.13;;;;;;;1.72;92.68;98069.53;5050268;28;20052;-63
2021/01/05 02:07:21;;;;;;;23.13;9.90;;;;;;;1.54;92.90;98069.41;5057873;28;20074;-63
2021/01/05 02:10:05;;;;;;;159.23;18.20;;;;;;;1.51;92.38;98074.44;5075319;28;20028;-63
2021/01/05 02:12:41;;;;;;;165.00;20.57;;;;;;;1.37;92.40;98060.84;5074128;28;20032;-63
2021/01/05 02:15:29;;;;;;;157.07;20.80;;;;;;;1.36;92.52;98056.63;5075054;28;20456;-62
2021/01/05 02:18:20;;;;;;;169.43;19.43;;;;;;;1.20;92.46;98057.34;5061187;28;20546;-62
2021/01/05 02:20:52;;;;;;;66.83;13.50;;;;;;;1.32;92.68;98049.84;5074644;28;20024;-63
2021/01/05 02:23:51;;;;;;;60.53;13.50;;;;;;;1.31;92.42;98053.22;5073727;28;20048;-63
2021/01/05 02:26:31;;;;;;;113.17;13.83;;;;;;;1.01;92.39;98047.91;5066326;28;20326;-63
2021/01/05 02:29:06;;;;;;;108.77;15.80;;;;;;;1.04;92.72;98043.75;5069388;28;20093;-62
2021/01/05 02:31:52;;;;;;;26.33;10.38;;;;;;;0.95;92.75;98037.75;5074490;28;20024;-62
2021/01/05 02:34:42;;;;;;;41.47;12.15;;;;;;;0.89;92.88;98026.78;5065545;28;20028;-62
2021/01/05 02:37:10;;;;;;;31.40;10.73;;;;;;;0.77;92.97;98030.84;5054145;28;20105;-63
2021/01/05 02:40:00;;;;;;;24.53;9.57;;;;;;;0.74;92.86;98031.69;5072070;28;20354;-62
2021/01/05 02:42:40;;;;;;;18.00;9.37;;;;;;;0.73;92.51;98029.13;5073779;28;20028;-63
2021/01/05 02:45:26;;;;;;;20.07;11.13;;;;;;;0.66;93.04;98023.19;5055524;28;20086;-63
2021/01/05 02:48:15;;;;;;;19.90;10.23;;;;;;;0.57;92.50;98017.22;5056074;28;20065;-62
2021/01/05 02:50:56;;;;;;;14.10;9.07;;;;;;;0.55;93.10;98018.88;5075089;28;20398;-63
2021/01/05 02:53:57;;;;;;;16.00;9.20;;;;;;;0.48;92.52;98020.47;5072948;28;20047;-63
2021/01/05 02:57:09;;;;;;;16.90;9.40;;;;;;;0.40;92.48;98019.53;5054546;28;20025;-63
2021/01/05 03:00:02;;;;;;;16.70;10.00;;;;;;;0.28;93.34;98017.75;5012241;28;20030;-62
2021/01/05 03:03:03;;;;;;;16.13;9.27;;;;;;;0.23;93.80;98026.06;5010025;28;20030;-62
2021/01/05 03:05:28;;;;;;;14.63;9.23;;;;;;;0.19;93.68;98014.25;4970171;28;20537;-62
2021/01/05 03:07:54;;;;;;;14.87;9.27;;;;;;;0.16;93.91;98012.56;5012042;28;20117;-62
2021/01/05 03:10:37;;;;;;;17.03;8.77;;;;;;;0.23;93.69;98010.94;4977356;28;20352;-62
2021/01/05 03:13:17;;;;;;;15.93;9.47;;;;;;;0.23;93.69;98014.31;4992951;28;20463;-62
2021/01/05 03:15:51;;;;;;;13.57;8.40;;;;;;;0.08;93.06;98008.25;5009826;28;20034;-62
2021/01/05 03:18:35;;;;;;;12.50;7.70;;;;;;;0.05;92.87;98005.69;5014904;28;20030;-63
2021/01/05 03:21:07;;;;;;;17.03;9.93;;;;;;;0.09;93.61;98005.75;5017740;28;20049;-63
2021/01/05 03:23:34;;;;;;;16.30;9.23;;;;;;;0.09;93.72;98003.22;5016138;28;20040;-62
2021/01/05 03:26:04;;;;;;;18.80;9.70;;;;;;;0.17;93.90;98005.84;5018556;28;20375;-63
2021/01/05 03:28:31;;;;;;;17.27;9.43;;;;;;;0.14;93.77;98011.69;5008331;28;20030;-62
2021/01/05 03:31:09;;;;;;;20.47;10.13;;;;;;;0.27;93.68;98007.63;5009679;28;20025;-62
2021/01/05 03:33:34;;;;;;;19.50;9.43;;;;;;;0.25;93.91;98000.06;5045608;28;20135;-63
2021/01/05 03:36:00;;;;;;;21.63;10.90;;;;;;;0.32;94.15;97999.31;5073601;28;20131;-63
2021/01/05 03:38:25;;;;;;;22.03;10.83;;;;;;;0.36;94.29;98003.56;5073502;28;20028;-63
2021/01/05 03:40:51;;;;;;;21.87;11.17;;;;;;;0.44;94.63;98001.09;5073768;28;20021;-62
2021/01/05 03:43:16;;;;;;;22.83;12.07;;;;;;;0.53;94.24;98001.19;5072958;28;20024;-63
2021/01/05 03:45:41;;;;;;;25.23;12.07;;;;;;;0.57;94.19;98002.94;5073409;28;20032;-63
2021/01/05 03:48:07;;;;;;;25.03;11.77;;;;;;;0.68;94.54;97990.44;5071751;28;20032;-63
2021/01/05 03:50:33;;;;;;;19.07;11.23;;;;;;;0.72;94.15;97992.16;5073836;28;20074;-63
2021/01/05 03:52:58;;;;;;;18.90;9.90;;;;;;;0.79;94.25;97993.88;5073199;28;20503;-63
2021/01/05 03:55:23;;;;;;;23.10;11.03;;;;;;;0.83;94.00;97988.88;5073598;28;20021;-63
2021/01/05 03:57:49;;;;;;;21.70;11.73;;;;;;;0.90;94.10;97983.06;5072936;28;20444;-63
2021/01/05 04:00:25;;;;;;;21.63;11.40;;;;;;;1.02;93.91;97981.47;5070900;28;20048;-63
2021/01/05 04:02:55;;;;;;;26.00;11.33;;;;;;;1.02;94.16;97982.31;5072732;28;20103;-63
2021/01/05 04:05:22;;;;;;;26.13;12.10;;;;;;;1.14;94.35;97989.16;5070977;28;20356;-63
2021/01/05 04:07:47;;;;;;;22.60;10.87;;;;;;;1.17;94.05;97986.63;5071482;28;20025;-63
2021/01/05 04:10:13;;;;;;;23.27;12.23;;;;;;;1.28;94.22;97979.97;5071664;28;20052;-63
2021/01/05 04:12:39;;;;;;;20.97;12.13;;;;;;;1.31;94.31;97980.03;5072526;28;20024;-63
2021/01/05 04:15:14;;;;;;;23.70;12.10;;;;;;;1.45;94.06;97982.59;5071545;28;20025;-63
2021/01/05 04:17:39;;;;;;;20.38;11.90;;;;;;;1.42;93.52;97978.41;5066654;28;20108;-64
2021/01/05 04:20:05;;;;;;;23.87;11.03;;;;;;;1.44;93.26;97986.84;5073519;28;20111;-64
2021/01/05 04:22:31;;;;;;;16.90;9.70;;;;;;;1.58;92.83;97980.16;5070984;28;20429;-64
2021/01/05 04:24:57;;;;;;;17.83;10.77;;;;;;;1.72;92.50;97976.06;5070593;28;20039;-64
2021/01/05 04:27:22;;;;;;;19.70;11.90;;;;;;;1.74;91.23;97981.94;5071354;28;20104;-64
2021/01/05 04:29:47;;;;;;;11.90;8.57;;;;;;;1.74;90.42;97969.31;5071652;28;20094;-65
2021/01/05 04:32:13;;;;;;;14.07;8.23;;;;;;;1.80;90.22;97971.03;5070827;28;20037;-62
2021/01/05 04:34:38;;;;;;;16.33;9.50;;;;;;;1.89;90.12;97972.75;5070932;28;20508;-63
2021/01/05 04:37:04;;;;;;;15.30;9.37;;;;;;;1.89;89.68;97972.75;5070655;28;20020;-63
2021/01/05 04:39:29;;;;;;;13.20;8.47;;;;;;;1.97;89.86;97971.94;5062616;28;20047;-63
2021/01/05 04:42:00;;;;;;;12.90;8.00;;;;;;;2.13;89.20;97970.31;5074457;28;20028;-63
2021/01/05 04:44:30;;;;;;;14.20;8.73;;;;;;;2.05;88.94;97971.97;5075726;28;20353;-63
2021/01/05 04:47:01;;;;;;;12.47;8.13;;;;;;;2.02;89.18;97971.97;5075994;28;20028;-61
2021/01/05 04:49:57;;;;;;;14.90;8.03;;;;;;;2.16;87.96;97977.94;5074376;28;20461;-61
2021/01/05 04:52:30;;;;;;;11.50;7.67;;;;;;;2.15;88.55;97973.72;5075733;28;20032;-62
2021/01/05 04:55:14;;;;;;;12.50;7.53;;;;;;;2.16;88.56;97968.66;5062733;28;20031;-61
2021/01/05 04:57:40;;;;;;;10.77;7.80;;;;;;;2.13;88.95;97985.47;5072025;28;20039;-62
2021/01/05 05:00:19;;;;;;;10.93;7.17;;;;;;;2.24;88.47;97979.66;5056302;28;20025;-62
2021/01/05 05:02:57;;;;;;;13.53;7.50;;;;;;;2.34;88.20;97984.72;5068023;28;20024;-62
2021/01/05 05:06:00;;;;;;;12.57;7.73;;;;;;;2.39;87.15;97975.47;5075890;28;20032;-62
2021/01/05 05:09:13;;;;;;;10.23;7.40;;;;;;;2.46;86.96;97985.59;5075029;28;20032;-61
2021/01/05 05:11:58;;;;;;;10.50;6.57;;;;;;;2.47;86.89;97981.38;5069101;28;20068;-62
2021/01/05 05:14:51;;;;;;;10.70;7.45;;;;;;;2.52;86.62;97983.09;5056568;28;20047;-62
2021/01/05 05:17:39;;;;;;;12.17;7.00;;;;;;;2.45;87.04;97983.06;5056328;28;20033;-62
2021/01/05 05:20:31;;;;;;;11.40;7.53;;;;;;;2.48;87.18;97978.84;5075077;28;20033;-62
2021/01/05 05:23:25;;;;;;;12.27;7.70;;;;;;;2.48;86.66;97981.41;5074528;28;20043;-62
2021/01/05 05:26:04;;;;;;;8.87;6.93;;;;;;;2.48;87.18;97978.84;5077128;28;20025;-61
2021/01/05 05:28:41;;;;;;;12.60;8.13;;;;;;;2.51;87.25;97980.53;5075108;28;20054;-62
2021/01/05 05:31:17;;;;;;;12.83;8.10;;;;;;;2.43;88.04;97980.53;5076305;28;20484;-62
2021/01/05 05:33:43;;;;;;;12.90;8.50;;;;;;;2.21;88.20;97978.78;5075148;28;20433;-62
2021/01/05 05:37:01;;;;;;;11.47;8.33;;;;;;;2.41;88.01;97978.84;5076743;28;20123;-62
2021/01/05 05:39:44;;;;;;;14.23;9.27;;;;;;;2.39;88.30;97988.94;5040479;28;20044;-62
2021/01/05 05:42:12;;;;;;;12.70;7.80;;;;;;;2.29;88.09;97993.13;5075054;28;20521;-62
2021/01/05 05:44:52;;;;;;;12.40;7.73;;;;;;;2.28;88.12;97993.16;5072867;28;20457;-62
2021/01/05 05:47:45;;;;;;;12.30;8.77;;;;;;;2.34;88.12;97985.56;5076796;28;20028;-62
2021/01/05 05:50:20;;;;;;;12.27;8.07;;;;;;;2.32;87.88;97991.47;5073336;28;20348;-62
2021/01/05 05:52:57;;;;;;;12.40;7.70;;;;;;;2.29;88.23;97992.31;5073211;28;20028;-62
2021/01/05 05:55:41;;;;;;;10.80;7.90;;;;;;;2.17;89.02;97987.19;5074651;28;20062;-62
2021/01/05 05:58:07;;;;;;;12.20;6.90;;;;;;;2.26;88.65;97988.06;5073672;28;20037;-62
2021/01/05 06:00:39;;;;;;;14.30;8.07;;;;;;;2.34;87.83;97985.56;5063340;28;20152;-62
2021/01/05 06:03:10;;;;;;;12.23;7.97;;;;;;;2.36;88.16;97988.09;5071181;28;20277;-62
2021/01/05 06:05:37;;;;;;;12.83;7.43;;;;;;;2.34;88.04;97985.56;5063603;28;20032;-62
2021/01/05 06:08:05;;;;;;;12.17;7.80;;;;;;;2.45;87.64;97986.44;5074752;28;20024;-62
2021/01/05 06:10:30;;;;;;;13.60;8.47;;;;;;;2.49;86.86;97993.22;5068784;28;20028;-62
2021/01/05 06:12:56;;;;;;;14.20;7.10;;;;;;;2.56;86.36;97986.47;5074909;28;20090;-62
2021/01/05 06:15:22;;;;;;;10.20;7.37;;;;;;;2.58;86.39;97995.75;5072939;28;20424;-62
2021/01/05 06:17:48;;;;;;;11.83;7.30;;;;;;;2.62;86.67;98002.53;5065714;28;20033;-62
2021/01/05 06:20:14;;;;;;;14.77;8.23;;;;;;;2.67;86.43;97994.94;5066963;28;20107;-62
2021/01/05 06:22:39;;;;;;;15.30;8.47;;;;;;;2.58;86.96;97994.91;5074881;28;20116;-62
2021/01/05 06:25:06;;;;;;;16.73;9.57;;;;;;;2.73;86.20;98000.00;5072027;28;20024;-62
2021/01/05 06:27:32;;;;;;;16.07;9.17;;;;;;;2.70;86.05;98005.06;5054608;28;20036;-62
2021/01/05 06:29:58;;;;;;;13.83;8.80;;;;;;;2.73;85.86;98000.00;5062913;28;20020;-62
2021/01/05 06:32:23;;;;;;;18.33;9.97;;;;;;;2.71;85.60;98002.53;5074590;28;20056;-62
2021/01/05 06:34:48;;;;;;;16.93;10.70;;;;;;;2.73;85.64;98000.00;5072841;28;20048;-62
2021/01/05 06:37:15;;;;;;;14.77;10.47;;;;;;;2.83;85.78;97995.78;5071739;28;20418;-62
2021/01/05 06:39:40;;;;;;;12.87;8.73;;;;;;;2.71;86.05;98004.22;5070251;28;20460;-61
2021/01/05 06:42:06;;;;;;;14.10;9.37;;;;;;;2.79;85.96;98006.75;5071550;28;20098;-62
2021/01/05 06:44:31;;;;;;;11.23;7.73;;;;;;;2.78;85.66;98000.84;5066975;28;20672;-62
2021/01/05 06:46:57;;;;;;;11.83;7.57;;;;;;;2.75;85.73;98004.22;5064178;28;20055;-63
2021/01/05 06:49:26;;;;;;;11.13;7.23;;;;;;;2.71;86.64;98007.59;5064488;28;20556;-63
2021/01/05 06:51:53;;;;;;;11.53;8.10;;;;;;;2.72;86.72;98008.41;5066500;28;20024;-63
2021/01/05 06:54:19;;;;;;;11.37;8.03;;;;;;;2.78;86.44;98008.44;5074000;28;20377;-63
2021/01/05 06:56:55;;;;;;;11.07;7.60;;;;;;;2.95;86.10;98011.00;5072901;28;20378;-63
2021/01/05 06:59:22;;;;;;;11.27;7.80;;;;;;;2.86;85.79;98005.91;5070583;28;20609;-62
2021/01/05 07:01:57;;;;;;;14.13;9.67;;;;;;;2.85;86.39;98014.34;5066862;28;20354;-64
2021/01/05 07:04:24;;;;;;;10.07;6.97;;;;;;;2.86;86.21;98011.81;5063084;28;20157;-62
2021/01/05 07:06:49;;;;;;;12.90;9.30;;;;;;;2.97;86.54;98016.91;5072634;28;20449;-63
2021/01/05 07:09:17;;;;;;;12.43;8.07;;;;;;;3.02;86.08;98017.75;5071829;28;20035;-63
2021/01/05 07:11:43;;;;;;;15.13;8.87;;;;;;;3.03;86.02;98014.38;5073911;28;20025;-63
2021/01/05 07:14:08;;;;;;;13.80;8.93;;;;;;;2.93;86.37;98023.63;5064970;28;20071;-63
2021/01/05 07:16:34;;;;;;;13.53;8.20;;;;;;;2.76;86.44;98027.81;5054923;28;20106;-63
2021/01/05 07:18:59;;;;;;;12.60;7.93;;;;;;;2.81;86.64;98022.78;5057985;28;20456;-63
2021/01/05 07:21:25;;;;;;;14.40;8.67;;;;;;;2.85;86.11;98029.53;5074107;28;20492;-63
2021/01/05 07:23:51;;;;;;;12.57;8.37;;;;;;;2.90;86.25;98026.19;5072290;28;20052;-63
2021/01/05 07:26:17;;;;;;;14.37;8.83;;;;;;;2.88;86.41;98032.94;5074627;28;20020;-63
2021/01/05 07:28:42;;;;;;;15.53;9.37;;;;;;;2.88;86.15;98034.63;5071762;28;20074;-63
2021/01/05 07:31:08;;;;;;;13.00;8.10;;;;;;;2.89;86.57;98041.34;5073818;28;20036;-63
2021/01/05 07:33:34;;;;;;;12.63;8.43;;;;;;;2.85;86.25;98037.13;5073639;28;20076;-65
2021/01/05 07:36:03;;;;;;;12.50;7.97;;;;;;;2.95;86.42;98034.63;5072308;28;20040;-63
2021/01/05 07:38:28;;;;;;;11.33;7.60;;;;;;;2.82;86.23;98043.03;5074176;28;20031;-63
2021/01/05 07:40:54;;;;;;;13.73;9.80;;;;;;;2.89;86.36;98037.13;5072265;28;20056;-63
2021/01/05 07:43:19;;;;;;;11.97;7.47;;;;;;;2.89;86.54;98037.13;5071642;28;20036;-63
2021/01/05 07:45:44;;;;;;;12.27;8.27;;;;;;;2.90;86.40;98043.91;5071865;28;20078;-62
2021/01/05 07:48:10;;;;;;;14.50;8.40;;;;;;;3.00;85.96;98045.59;5073171;28;20512;-63
2021/01/05 07:50:35;;;;;;;12.77;8.27;;;;;;;3.10;86.10;98041.38;5072411;28;20032;-63
2021/01/05 07:53:02;;;;;;;13.13;8.07;;;;;;;3.15;85.40;98037.16;5073364;28;20337;-63
2021/01/05 07:55:28;;;;;;;17.23;9.60;;;;;;;3.16;85.53;98028.72;5073241;28;20357;-64
2021/01/05 07:57:54;;;;;;;15.47;8.30;;;;;;;3.37;85.06;98033.81;5073253;28;20024;-63
2021/01/05 08:00:26;;;;;;;15.27;8.90;;;;;;;3.39;83.95;98033.81;5072218;28;20020;-63
2021/01/05 08:02:53;;;;;;;15.17;8.70;;;;;;;3.34;83.31;98028.75;5073474;28;20079;-63
2021/01/05 08:05:21;;;;;;;15.43;9.03;;;;;;;3.25;83.63;98032.97;5072612;28;20025;-63
2021/01/05 08:07:47;;;;;;;16.63;9.77;;;;;;;3.17;84.08;98031.28;5072817;28;20036;-63
2021/01/05 08:10:23;;;;;;;17.57;9.57;;;;;;;3.35;84.30;98030.44;5073057;28;20445;-63
2021/01/05 08:12:48;;;;;;;16.30;10.63;;;;;;;3.34;83.82;98033.81;5070952;28;20396;-63
2021/01/05 08:15:16;;;;;;;21.67;11.80;;;;;;;3.55;83.37;98035.47;5073525;28;20023;-64
2021/01/05 08:17:42;;;;;;;26.57;12.67;;;;;;;3.26;84.18;98037.19;5072581;28;20027;-63
2021/01/05 08:20:08;;;;;;;27.17;13.67;;;;;;;3.31;84.08;98026.19;5070531;28;20016;-63
2021/01/05 08:22:33;;;;;;;33.17;14.23;;;;;;;3.35;84.54;98030.44;5072830;28;20017;-63
2021/01/05 08:24:59;;;;;;;25.30;12.87;;;;;;;3.42;84.57;98038.88;5074534;28;20437;-63
2021/01/05 08:27:24;;;;;;;31.17;12.93;;;;;;;3.56;84.18;98034.66;5075959;28;20031;-62
2021/01/05 08:29:49;;;;;;;23.87;12.37;;;;;;;3.68;83.90;98039.69;5074423;28;20111;-63
2021/01/05 08:32:15;;;;;;;26.47;13.47;;;;;;;3.79;83.75;98032.91;5075915;28;20032;-63
2021/01/05 08:34:40;;;;;;;16.03;10.30;;;;;;;3.86;84.07;98026.16;5076744;28;20053;-63
2021/01/05 08:37:06;;;;;;;14.77;9.37;;;;;;;3.94;83.30;98034.59;5077370;28;20021;-63
2021/01/05 08:39:31;;;;;;;14.07;10.43;;;;;;;3.87;82.48;98031.19;5076108;28;20025;-63
2021/01/05 08:41:57;;;;;;;15.47;9.80;;;;;;;3.92;82.97;98026.13;5077764;28;20449;-63
2021/01/05 08:44:24;;;;;;;17.43;11.17;;;;;;;4.09;82.72;98032.84;5077175;28;20432;-63
2021/01/05 08:46:50;;;;;;;21.33;13.53;;;;;;;4.14;82.72;98032.81;5076421;28;20028;-63
2021/01/05 08:49:16;;;;;;;28.77;18.00;;;;;;;4.30;82.53;98034.44;5077272;28;20131;-64
2021/01/05 08:51:41;;;;;;;23.47;14.90;;;;;;;4.37;82.17;98036.09;5075902;28;20024;-66
2021/01/05 08:54:07;;;;;;;19.70;12.60;;;;;;;4.44;81.69;98036.94;5077345;28;20021;-66
2021/01/05 08:56:32;;;;;;;18.20;12.13;;;;;;;4.26;81.19;98037.84;5075843;28;20031;-65
2021/01/05 08:58:58;;;;;;;16.30;10.17;;;;;;;4.23;80.85;98037.88;5076429;28;20029;-65
2021/01/05 09:01:24;;;;;;;18.07;10.53;;;;;;;4.15;80.87;98039.59;5073986;28;20024;-64
2021/01/05 09:03:49;;;;;;;14.33;8.63;;;;;;;4.11;80.67;98043.84;5075728;28;20169;-64
2021/01/05 09:06:21;;;;;;;22.37;12.83;;;;;;;4.14;80.83;98040.44;5075505;28;20103;-65
2021/01/05 09:08:47;;;;;;;18.50;11.27;;;;;;;4.29;80.61;98050.50;5075430;28;20017;-64
2021/01/05 09:11:21;;;;;;;13.77;8.70;;;;;;;4.47;80.58;98042.00;5076570;28;20031;-64
2021/01/05 09:13:47;;;;;;;13.88;8.73;;;;;;;4.26;80.79;98044.63;5074838;28;20048;-65
2021/01/05 09:16:24;;;;;;;12.90;8.33;;;;;;;4.28;79.75;98045.47;5076201;28;20125;-64
2021/01/05 09:18:54;;;;;;;13.43;7.97;;;;;;;4.29;79.93;98050.50;5075581;28;20105;-65
2021/01/05 09:21:23;;;;;;;15.93;9.83;;;;;;;4.28;80.22;98045.47;5075427;28;20027;-65
2021/01/05 09:23:51;;;;;;;18.70;10.40;;;;;;;4.30;80.81;98052.22;5075077;28;20159;-65
2021/01/05 09:26:24;;;;;;;21.30;9.97;;;;;;;4.31;81.14;98053.91;5075557;28;20024;-64
2021/01/05 09:28:50;;;;;;;14.43;8.87;;;;;;;4.29;80.56;98058.13;5074971;28;20024;-64
2021/01/05 09:31:17;;;;;;;15.37;9.03;;;;;;;4.26;80.67;98050.53;5075474;28;20021;-65
2021/01/05 09:33:42;;;;;;;17.83;10.57;;;;;;;4.10;82.18;98052.28;5075414;28;20032;-65
2021/01/05 09:36:09;;;;;;;16.77;10.40;;;;;;;4.12;81.44;98058.19;5075655;28;20055;-65
2021/01/05 09:38:35;;;;;;;16.73;9.27;;;;;;;4.16;81.35;98046.31;5075777;28;20082;-65
2021/01/05 09:41:01;;;;;;;21.50;11.27;;;;;;;4.08;82.09;98051.44;5075837;28;20032;-66
2021/01/05 09:43:26;;;;;;;21.83;12.23;;;;;;;4.14;82.28;98046.34;5075317;28;20411;-65
2021/01/05 09:45:51;;;;;;;20.50;11.70;;;;;;;4.02;82.33;98048.09;5075381;28;20056;-66
2021/01/05 09:48:17;;;;;;;25.60;12.67;;;;;;;4.02;82.33;98043.84;5076383;28;20021;-66
2021/01/05 09:50:45;;;;;;;23.20;11.83;;;;;;;4.08;82.59;98048.03;5075270;28;20020;-65
2021/01/05 09:53:11;;;;;;;20.67;12.67;;;;;;;4.14;82.41;98048.88;5076398;28;20020;-65
2021/01/05 09:55:37;;;;;;;24.17;14.30;;;;;;;4.13;82.08;98051.41;5062316;28;20029;-66
2021/01/05 09:58:03;;;;;;;22.60;12.63;;;;;;;4.12;82.29;98044.66;5055946;28;20020;-65
2021/01/05 10:00:29;;;;;;;21.73;13.17;;;;;;;4.09;82.68;98045.53;5065012;28;20028;-65
2021/01/05 10:02:54;;;;;;;24.37;13.40;;;;;;;4.06;83.49;98044.69;5076114;28;20029;-65
2021/01/05 10:05:20;;;;;;;35.60;16.87;;;;;;;4.17;83.09;98037.88;5073598;28;20025;-65
2021/01/05 10:07:46;;;;;;;38.53;18.23;;;;;;;4.36;82.70;98049.66;5076216;28;20021;-65
2021/01/05 10:10:19;;;;;;;41.23;18.77;;;;;;;4.51;82.45;98038.59;5073986;28;20021;-65
2021/01/05 10:12:45;;;;;;;50.93;23.93;;;;;;;4.26;83.18;98039.53;5075391;28;20025;-64
2021/01/05 10:15:15;;;;;;;59.10;25.97;;;;;;;4.28;83.22;98043.78;5074003;28;20024;-65
2021/01/05 10:17:41;;;;;;;61.23;27.33;;;;;;;4.27;83.96;98038.69;5076350;28;20567;-65
2021/01/05 10:20:08;;;;;;;62.70;28.23;;;;;;;4.18;83.62;98039.56;5074634;28;20115;-66
2021/01/05 10:22:34;;;;;;;58.63;25.50;;;;;;;4.06;83.48;98042.16;5075000;28;20016;-65
2021/01/05 10:24:59;;;;;;;54.17;24.20;;;;;;;4.07;83.27;98033.69;5074340;28;20036;-65
2021/01/05 10:27:24;;;;;;;54.37;25.00;;;;;;;4.21;83.06;98031.94;5074588;28;20449;-65
2021/01/05 10:29:51;;;;;;;52.07;24.27;;;;;;;4.08;83.23;98026.06;5074168;28;20365;-65
2021/01/05 10:32:16;;;;;;;51.77;23.87;;;;;;;4.08;83.09;98032.81;5074688;28;20350;-65
2021/01/05 10:34:42;;;;;;;51.10;24.00;;;;;;;4.21;82.72;98023.50;5074149;28;20048;-65
2021/01/05 10:37:08;;;;;;;54.93;26.37;;;;;;;4.28;83.75;98020.94;5073763;28;20103;-65
2021/01/05 10:39:34;;;;;;;57.50;25.20;;;;;;;4.09;83.70;98016.78;5073641;28;20020;-65
2021/01/05 10:42:03;;;;;;;56.43;24.43;;;;;;;4.08;83.53;98012.53;5073834;28;20067;-65
2021/01/05 10:44:28;;;;;;;53.17;25.50;;;;;;;4.15;83.48;98014.22;5075057;28;20048;-64
2021/01/05 10:46:58;;;;;;;50.80;25.47;;;;;;;4.34;83.07;98013.28;5073626;28;20103;-64
2021/01/05 10:49:23;;;;;;;58.17;27.43;;;;;;;4.16;83.66;98010.00;5075090;28;20028;-64
2021/01/05 10:51:51;;;;;;;48.30;23.07;;;;;;;4.23;82.86;98021.81;5073213;28;20504;-64
2021/01/05 10:54:18;;;;;;;48.50;22.80;;;;;;;4.33;81.65;98014.13;5074482;28;20025;-65
2021/01/05 10:56:45;;;;;;;58.83;23.37;;;;;;;4.44;81.62;98011.56;5073490;28;20029;-65
2021/01/05 10:59:12;;;;;;;55.00;24.70;;;;;;;4.36;80.83;98016.69;5074872;28;20123;-66
2021/01/05 11:01:37;;;;;;;50.17;22.30;;;;;;;4.33;81.92;98015.84;5073065;28;20078;-65
2021/01/05 11:04:02;;;;;;;50.63;23.63;;;;;;;4.44;81.30;98014.09;5074957;28;20400;-65
2021/01/05 11:06:28;;;;;;;46.13;21.90;;;;;;;4.34;81.63;98015.81;5073077;28;20032;-65
2021/01/05 11:08:53;;;;;;;49.47;23.20;;;;;;;4.46;81.39;98012.38;5074366;28;20028;-64
2021/01/05 11:11:20;;;;;;;54.20;24.37;;;;;;;4.50;81.12;98017.44;5072868;28;20031;-65
2021/01/05 11:13:45;;;;;;;49.13;22.63;;;;;;;4.36;80.90;98011.59;5074896;28;20075;-65
2021/01/05 11:16:12;;;;;;;63.93;29.50;;;;;;;4.59;81.37;98011.47;5073510;28;20107;-65
2021/01/05 11:18:41;;;;;;;44.30;23.57;;;;;;;4.60;80.22;98011.47;5073688;28;20050;-64
2021/01/05 11:21:18;;;;;;;53.63;25.30;;;;;;;4.52;80.43;98008.13;5073517;28;20063;-65
2021/01/05 11:23:43;;;;;;;48.80;23.30;;;;;;;4.47;79.88;98016.63;5073747;28;20063;-64
2021/01/05 11:26:09;;;;;;;47.40;20.30;;;;;;;4.37;80.22;98013.25;5072884;28;20080;-65
2021/01/05 11:28:35;;;;;;;44.70;22.00;;;;;;;4.46;79.85;98015.75;5073480;28;20479;-64
2021/01/05 11:31:01;;;;;;;44.70;22.20;;;;;;;4.42;79.70;98011.56;5073315;28;20036;-64
2021/01/05 11:33:26;;;;;;;42.87;23.17;;;;;;;4.60;79.95;98013.16;5071427;28;20058;-64
2021/01/05 11:35:52;;;;;;;51.40;25.63;;;;;;;4.67;78.89;98007.19;5072579;28;20476;-64
2021/01/05 11:38:18;;;;;;;47.67;24.87;;;;;;;4.54;78.96;98008.94;5073140;28;20036;-65
2021/01/05 11:40:44;;;;;;;49.77;24.60;;;;;;;4.59;78.54;98012.31;5073702;28;20025;-65
2021/01/05 11:43:09;;;;;;;49.07;23.87;;;;;;;4.65;78.77;98011.44;5072794;28;20501;-64